createdAt,value
2016-08-05T00:00:51.441Z,0
2016-08-05T00:01:51.366Z,0
2016-08-05T00:02:51.523Z,0
2016-08-05T00:03:52.151Z,0
2016-08-05T00:04:50.711Z,0
2016-08-05T00:05:50.741Z,0
2016-08-05T00:06:51.476Z,0
2016-08-05T00:07:50.141Z,0
2016-08-05T00:08:49.388Z,0
2016-08-05T00:09:51.522Z,0
2016-08-05T00:10:51.525Z,0
2016-08-05T00:11:51.546Z,0
2016-08-05T00:12:51.687Z,0
2016-08-05T00:13:51.633Z,0
2016-08-05T00:14:51.689Z,0
2016-08-05T00:15:51.647Z,0
2016-08-05T00:16:51.717Z,0
2016-08-05T00:17:51.683Z,0
2016-08-05T00:18:51.731Z,0
2016-08-05T00:20:51.747Z,0
2016-08-05T00:21:52.480Z,0
2016-08-05T00:22:51.103Z,0
2016-08-05T00:23:51.212Z,0
2016-08-05T00:24:51.831Z,0
2016-08-05T00:25:51.170Z,0
2016-08-05T00:26:52.592Z,0
2016-08-05T00:27:51.201Z,0
2016-08-05T00:28:50.516Z,0
2016-08-05T00:29:51.979Z,0
2016-08-05T00:30:51.963Z,0
2016-08-05T00:31:50.554Z,0
2016-08-05T00:32:52.025Z,0
2016-08-05T00:33:52.890Z,0
2016-08-05T00:34:50.649Z,0
2016-08-05T00:35:51.349Z,0
2016-08-05T00:36:52.078Z,0
2016-08-05T00:37:52.111Z,0
2016-08-05T00:38:52.132Z,0
2016-08-05T00:39:51.452Z,0
2016-08-05T00:40:50.764Z,0
2016-08-05T00:41:52.913Z,0
2016-08-05T00:42:51.578Z,0
2016-08-05T00:43:52.935Z,0
2016-08-05T00:44:52.261Z,0
2016-08-05T00:45:51.623Z,0
2016-08-05T00:46:52.292Z,0
2016-08-05T00:47:51.602Z,0
2016-08-05T00:48:51.714Z,0
2016-08-05T00:49:50.929Z,0
2016-08-05T00:50:52.370Z,0
2016-08-05T00:51:52.541Z,0
2016-08-05T00:52:51.700Z,0
2016-08-05T00:53:52.444Z,0
2016-08-05T00:54:51.748Z,0
2016-08-05T00:55:51.770Z,0
2016-08-05T00:56:51.803Z,0
2016-08-05T00:57:51.794Z,0
2016-08-05T00:58:51.828Z,0
2016-08-05T00:59:51.851Z,0
2016-08-05T01:00:52.704Z,0
2016-08-05T01:01:52.581Z,0
2016-08-05T01:02:51.908Z,0
2016-08-05T01:03:53.363Z,0
2016-08-05T01:04:52.729Z,0
2016-08-05T01:05:52.694Z,0
2016-08-05T01:06:52.845Z,0
2016-08-05T01:07:53.443Z,0
2016-08-05T01:08:52.034Z,0
2016-08-05T01:09:52.743Z,0
2016-08-05T01:10:51.365Z,0
2016-08-05T01:11:52.793Z,0
2016-08-05T01:12:52.125Z,0
2016-08-05T01:13:52.134Z,0
2016-08-05T01:14:53.566Z,0
2016-08-05T01:15:53.623Z,0
2016-08-05T01:16:51.502Z,0
2016-08-05T01:17:53.687Z,0
2016-08-05T01:18:51.578Z,0
2016-08-05T01:19:52.965Z,0
2016-08-05T01:20:51.661Z,0
2016-08-05T01:21:51.604Z,0
2016-08-05T01:22:53.732Z,0
2016-08-05T01:23:52.331Z,0
2016-08-05T01:24:51.663Z,0
2016-08-05T01:25:52.360Z,0
2016-08-05T01:26:51.681Z,0
2016-08-05T01:27:53.126Z,0
2016-08-05T01:28:53.302Z,0
2016-08-05T01:29:53.182Z,0
2016-08-05T01:30:53.976Z,0
2016-08-05T01:31:53.894Z,0
2016-08-05T01:32:52.605Z,0
2016-08-05T01:33:51.898Z,0
2016-08-05T01:34:52.548Z,0
2016-08-05T01:35:51.865Z,0
2016-08-05T01:36:54.065Z,0
2016-08-05T01:37:54.062Z,0
2016-08-05T01:38:52.724Z,0
2016-08-05T01:39:54.294Z,0
2016-08-05T01:40:52.682Z,0
2016-08-05T01:41:53.432Z,0
2016-08-05T01:42:52.734Z,0
2016-08-05T01:43:51.318Z,0
2016-08-05T01:44:54.156Z,0
2016-08-05T01:45:52.888Z,0
2016-08-05T01:46:53.036Z,0
2016-08-05T01:47:52.907Z,0
2016-08-05T01:48:53.549Z,0
2016-08-05T01:49:53.563Z,0
2016-08-05T01:50:54.282Z,0
2016-08-05T01:51:53.600Z,0
2016-08-05T01:52:53.726Z,0
2016-08-05T01:53:54.383Z,0
2016-08-05T01:54:52.993Z,0
2016-08-05T01:55:52.980Z,0
2016-08-05T01:56:52.314Z,0
2016-08-05T01:57:53.023Z,0
2016-08-05T01:58:51.613Z,0
2016-08-05T01:59:53.054Z,0
2016-08-05T02:00:53.803Z,0
2016-08-05T02:01:53.122Z,0
2016-08-05T02:02:53.825Z,0
2016-08-05T02:03:53.134Z,0
2016-08-05T02:04:53.874Z,0
2016-08-05T02:05:53.975Z,0
2016-08-05T02:06:52.474Z,0
2016-08-05T02:07:52.507Z,0
2016-08-05T02:08:52.607Z,0
2016-08-05T02:09:52.580Z,0
2016-08-05T02:10:54.695Z,0
2016-08-05T02:11:54.037Z,0
2016-08-05T02:12:54.042Z,0
2016-08-05T02:13:53.364Z,0
2016-08-05T02:14:54.073Z,0
2016-08-05T02:15:54.076Z,0
2016-08-05T02:16:53.406Z,0
2016-08-05T02:17:53.440Z,0
2016-08-05T02:18:53.463Z,0
2016-08-05T02:19:53.097Z,0
2016-08-05T02:20:53.489Z,0
2016-08-05T02:21:54.205Z,0
2016-08-05T02:22:53.523Z,0
2016-08-05T02:23:54.247Z,0
2016-08-05T02:24:54.995Z,0
2016-08-05T02:25:55.024Z,0
2016-08-05T02:26:54.309Z,0
2016-08-05T02:27:54.394Z,0
2016-08-05T02:28:54.359Z,0
2016-08-05T02:29:54.358Z,0
2016-08-05T02:30:55.098Z,0
2016-08-05T02:31:54.505Z,0
2016-08-05T02:32:54.426Z,0
2016-08-05T02:33:53.775Z,0
2016-08-05T02:34:53.830Z,0
2016-08-05T02:35:53.779Z,0
2016-08-05T02:36:53.795Z,0
2016-08-05T02:37:53.845Z,0
2016-08-05T02:38:53.834Z,0
2016-08-05T02:39:54.560Z,0
2016-08-05T02:40:53.890Z,0
2016-08-05T02:41:54.596Z,0
2016-08-05T02:42:53.934Z,0
2016-08-05T02:43:54.025Z,0
2016-08-05T02:44:54.692Z,0
2016-08-05T02:45:53.997Z,0
2016-08-05T02:46:54.745Z,0
2016-08-05T02:47:54.118Z,0
2016-08-05T02:48:54.759Z,0
2016-08-05T02:49:54.752Z,0
2016-08-05T02:50:53.374Z,0
2016-08-05T02:51:54.106Z,0
2016-08-05T02:52:53.411Z,0
2016-08-05T02:53:54.194Z,0
2016-08-05T02:54:54.139Z,0
2016-08-05T02:55:54.266Z,0
2016-08-05T02:56:54.174Z,0
2016-08-05T02:57:53.514Z,0
2016-08-05T02:58:55.649Z,0
2016-08-05T02:59:54.335Z,0
2016-08-05T03:00:54.652Z,0
2016-08-05T03:01:54.503Z,0
2016-08-05T03:02:53.834Z,0
2016-08-05T03:03:53.774Z,0
2016-08-05T03:04:53.994Z,0
2016-08-05T03:05:55.185Z,0
2016-08-05T03:06:55.451Z,0
2016-08-05T03:07:55.215Z,0
2016-08-05T03:08:54.678Z,0
2016-08-05T03:09:54.518Z,0
2016-08-05T03:10:54.015Z,0
2016-08-05T03:11:53.853Z,0
2016-08-05T03:12:54.517Z,0
2016-08-05T03:13:53.128Z,0
2016-08-05T03:14:54.067Z,0
2016-08-05T03:15:53.874Z,0
2016-08-05T03:16:54.674Z,0
2016-08-05T03:17:53.994Z,0
2016-08-05T03:18:54.636Z,0
2016-08-05T03:19:55.398Z,0
2016-08-05T03:20:54.661Z,0
2016-08-05T03:21:53.411Z,0
2016-08-05T03:22:55.399Z,0
2016-08-05T03:23:54.086Z,0
2016-08-05T03:24:56.167Z,0
2016-08-05T03:25:55.585Z,0
2016-08-05T03:26:54.072Z,0
2016-08-05T03:27:54.102Z,0
2016-08-05T03:28:55.525Z,0
2016-08-05T03:29:55.575Z,0
2016-08-05T03:30:54.999Z,0
2016-08-05T03:31:55.604Z,0
2016-08-05T03:32:54.912Z,0
2016-08-05T03:33:54.993Z,0
2016-08-05T03:34:55.754Z,0
2016-08-05T03:35:54.243Z,0
2016-08-05T03:36:56.386Z,0
2016-08-05T03:37:55.014Z,0
2016-08-05T03:38:55.011Z,0
2016-08-05T03:39:54.341Z,0
2016-08-05T03:40:55.775Z,5
2016-08-05T03:41:55.128Z,5
2016-08-05T03:42:55.787Z,5
2016-08-05T03:43:55.138Z,5
2016-08-05T03:44:55.135Z,5
2016-08-05T03:45:55.871Z,5
2016-08-05T03:46:55.179Z,5
2016-08-05T03:47:55.917Z,5
2016-08-05T03:48:54.860Z,5
2016-08-05T03:49:56.007Z,5
2016-08-05T03:50:55.960Z,10
2016-08-05T03:51:55.275Z,10
2016-08-05T03:52:55.983Z,10
2016-08-05T03:53:56.796Z,10
2016-08-05T03:54:56.045Z,10
2016-08-05T03:55:55.353Z,10
2016-08-05T03:56:56.788Z,10
2016-08-05T03:57:56.087Z,15
2016-08-05T03:58:56.267Z,15
2016-08-05T03:59:56.175Z,15
2016-08-05T04:00:55.456Z,15
2016-08-05T04:01:56.176Z,15
2016-08-05T04:02:56.225Z,15
2016-08-05T04:03:56.226Z,20
2016-08-05T04:04:56.234Z,20
2016-08-05T04:05:56.274Z,20
2016-08-05T04:06:56.290Z,20
2016-08-05T04:07:55.710Z,25
2016-08-05T04:08:57.172Z,25
2016-08-05T04:09:56.350Z,25
2016-08-05T04:10:55.281Z,25
2016-08-05T04:11:57.322Z,30
2016-08-05T04:12:57.111Z,30
2016-08-05T04:13:56.531Z,30
2016-08-05T04:14:56.442Z,35
2016-08-05T04:15:56.452Z,35
2016-08-05T04:16:55.877Z,40
2016-08-05T04:17:56.600Z,40
2016-08-05T04:18:56.521Z,45
2016-08-05T04:19:55.829Z,45
2016-08-05T04:20:55.829Z,45
2016-08-05T04:21:56.597Z,50
2016-08-05T04:22:56.580Z,50
2016-08-05T04:23:56.612Z,50
2016-08-05T04:24:56.726Z,50
2016-08-05T04:25:56.531Z,50
2016-08-05T04:26:56.745Z,50
2016-08-05T04:27:57.391Z,55
2016-08-05T04:28:56.707Z,55
2016-08-05T04:29:56.730Z,55
2016-08-05T04:30:56.046Z,55
2016-08-05T04:31:56.783Z,55
2016-08-05T04:32:56.087Z,60
2016-08-05T04:33:58.040Z,60
2016-08-05T04:34:56.828Z,60
2016-08-05T04:35:56.291Z,60
2016-08-05T04:36:56.157Z,60
2016-08-05T04:37:57.361Z,60
2016-08-05T04:38:55.493Z,60
2016-08-05T04:39:55.529Z,65
2016-08-05T04:41:55.254Z,65
2016-08-05T04:42:57.269Z,65
2016-08-05T04:43:56.283Z,65
2016-08-05T04:44:55.613Z,65
2016-08-05T04:45:55.642Z,65
2016-08-05T04:46:56.384Z,70
2016-08-05T04:47:56.372Z,75
2016-08-05T04:48:56.521Z,80
2016-08-05T04:49:57.118Z,80
2016-08-05T04:50:57.262Z,80
2016-08-05T04:51:58.031Z,80
2016-08-05T04:52:57.181Z,90
2016-08-05T04:53:56.620Z,95
2016-08-05T04:54:57.231Z,105
2016-08-05T04:56:58.231Z,105
2016-08-05T04:57:57.440Z,110
2016-08-05T04:58:56.621Z,120
2016-08-05T04:59:57.356Z,115
2016-08-05T05:00:57.339Z,115
2016-08-05T05:01:56.140Z,115
2016-08-05T05:02:57.389Z,115
2016-08-05T05:03:56.749Z,115
2016-08-05T05:04:57.412Z,115
2016-08-05T05:05:56.051Z,115
2016-08-05T05:06:56.761Z,110
2016-08-05T05:07:56.789Z,105
2016-08-05T05:08:56.111Z,105
2016-08-05T05:09:58.271Z,115
2016-08-05T05:11:56.879Z,105
2016-08-05T05:12:58.303Z,105
2016-08-05T05:13:58.318Z,110
2016-08-05T05:14:57.030Z,110
2016-08-05T05:15:57.660Z,110
2016-08-05T05:16:57.779Z,115
2016-08-05T05:17:56.294Z,130
2016-08-05T05:18:57.690Z,170
2016-08-05T05:19:58.461Z,140
2016-08-05T05:20:57.030Z,150
2016-08-05T05:21:57.761Z,130
2016-08-05T05:22:57.799Z,120
2016-08-05T05:23:57.882Z,115
2016-08-05T05:24:57.129Z,110
2016-08-05T05:26:57.880Z,115
2016-08-05T05:27:57.965Z,110
2016-08-05T05:28:56.642Z,105
2016-08-05T05:29:57.920Z,110
2016-08-05T05:30:58.062Z,100
2016-08-05T05:31:58.273Z,90
2016-08-05T05:32:57.490Z,140
2016-08-05T05:33:58.785Z,175
2016-08-05T05:34:58.444Z,100
2016-08-05T05:35:58.780Z,90
2016-08-05T05:36:58.443Z,105
2016-08-05T05:37:58.811Z,95
2016-08-05T05:38:57.835Z,90
2016-08-05T05:39:58.136Z,105
2016-08-05T05:41:57.721Z,100
2016-08-05T05:42:58.950Z,90
2016-08-05T05:43:58.960Z,90
2016-08-05T05:44:59.072Z,105
2016-08-05T05:45:56.921Z,115
2016-08-05T05:46:59.004Z,90
2016-08-05T05:47:57.600Z,95
2016-08-05T05:48:57.623Z,100
2016-08-05T05:49:57.698Z,90
2016-08-05T05:50:59.068Z,95
2016-08-05T05:51:58.394Z,90
2016-08-05T05:52:57.122Z,80
2016-08-05T05:53:57.802Z,75
2016-08-05T05:54:58.459Z,75
2016-08-05T05:56:58.482Z,70
2016-08-05T05:57:58.499Z,85
2016-08-05T05:58:58.620Z,105
2016-08-05T05:59:57.854Z,140
2016-08-05T06:00:58.129Z,145
2016-08-05T06:01:58.580Z,150
2016-08-05T06:02:58.754Z,170
2016-08-05T06:03:59.341Z,150
2016-08-05T06:04:58.765Z,120
2016-08-05T06:05:58.692Z,115
2016-08-05T06:06:57.272Z,120
2016-08-05T06:07:58.705Z,125
2016-08-05T06:08:59.442Z,160
2016-08-05T06:09:58.774Z,195
2016-08-05T06:10:58.793Z,160
2016-08-05T06:11:59.512Z,150
2016-08-05T06:12:58.823Z,140
2016-08-05T06:13:58.231Z,135
2016-08-05T06:14:58.181Z,130
2016-08-05T06:15:58.893Z,140
2016-08-05T06:16:58.911Z,140
2016-08-05T06:17:56.904Z,130
2016-08-05T06:18:57.521Z,145
2016-08-05T06:19:58.310Z,180
2016-08-05T06:20:59.700Z,230
2016-08-05T06:21:58.489Z,230
2016-08-05T06:22:58.479Z,245
2016-08-05T06:23:59.819Z,240
2016-08-05T06:24:59.070Z,250
2016-08-05T06:25:58.532Z,280
2016-08-05T06:26:59.140Z,270
2016-08-05T06:27:58.424Z,250
2016-08-05T06:28:59.175Z,230
2016-08-05T06:29:59.230Z,220
2016-08-05T06:30:58.505Z,235
2016-08-05T06:31:58.528Z,220
2016-08-05T06:32:59.261Z,190
2016-08-05T06:33:59.356Z,215
2016-08-05T06:34:59.302Z,260
2016-08-05T06:35:59.321Z,265
2016-08-05T06:36:58.642Z,225
2016-08-05T06:37:59.522Z,255
2016-08-05T06:38:59.418Z,290
2016-08-05T06:40:00.252Z,365
2016-08-05T06:40:58.721Z,455
2016-08-05T06:41:58.730Z,395
2016-08-05T06:42:57.408Z,325
2016-08-05T06:43:59.496Z,355
2016-08-05T06:44:59.532Z,390
2016-08-05T06:45:58.851Z,430
2016-08-05T06:46:59.579Z,395
2016-08-05T06:47:59.601Z,375
2016-08-05T06:48:58.987Z,345
2016-08-05T06:49:59.650Z,355
2016-08-05T06:50:59.126Z,395
2016-08-05T06:51:58.274Z,405
2016-08-05T06:52:59.730Z,435
2016-08-05T06:54:00.451Z,460
2016-08-05T06:54:59.862Z,455
2016-08-05T06:55:59.193Z,405
2016-08-05T06:57:00.625Z,365
2016-08-05T06:57:59.309Z,300
2016-08-05T06:58:59.838Z,435
2016-08-05T06:59:58.036Z,495
2016-08-05T07:00:59.200Z,520
2016-08-05T07:02:00.077Z,540
2016-08-05T07:02:59.945Z,430
2016-08-05T07:03:58.581Z,385
2016-08-05T07:04:59.975Z,370
2016-08-05T07:06:00.042Z,440
2016-08-05T07:07:00.031Z,395
2016-08-05T07:07:59.407Z,345
2016-08-05T07:08:58.775Z,280
2016-08-05T07:10:00.131Z,285
2016-08-05T07:11:00.159Z,325
2016-08-05T07:12:00.180Z,305
2016-08-05T07:12:59.512Z,255
2016-08-05T07:14:00.331Z,220
2016-08-05T07:14:59.571Z,195
2016-08-05T07:16:00.980Z,200
2016-08-05T07:17:00.291Z,200
2016-08-05T07:18:00.319Z,240
2016-08-05T07:19:00.330Z,255
2016-08-05T07:19:59.740Z,280
2016-08-05T07:21:00.391Z,265
2016-08-05T07:22:01.112Z,230
2016-08-05T07:22:59.721Z,240
2016-08-05T07:24:01.324Z,205
2016-08-05T07:25:00.483Z,205
2016-08-05T07:26:01.274Z,240
2016-08-05T07:26:59.958Z,210
2016-08-05T07:28:00.559Z,205
2016-08-05T07:29:01.293Z,205
2016-08-05T07:30:00.602Z,230
2016-08-05T07:31:00.652Z,230
2016-08-05T07:32:00.632Z,255
2016-08-05T07:33:00.772Z,250
2016-08-05T07:34:00.692Z,215
2016-08-05T07:35:00.771Z,195
2016-08-05T07:36:00.032Z,215
2016-08-05T07:37:01.834Z,210
2016-08-05T07:38:00.106Z,240
2016-08-05T07:39:01.531Z,240
2016-08-05T07:40:00.844Z,255
2016-08-05T07:41:01.835Z,255
2016-08-05T07:42:00.187Z,275
2016-08-05T07:43:01.829Z,355
2016-08-05T07:44:01.794Z,315
2016-08-05T07:45:01.796Z,390
2016-08-05T07:46:01.149Z,485
2016-08-05T07:47:01.807Z,350
2016-08-05T07:48:01.825Z,395
2016-08-05T07:49:00.371Z,405
2016-08-05T07:50:01.925Z,400
2016-08-05T07:51:01.135Z,420
2016-08-05T07:52:00.415Z,440
2016-08-05T07:53:01.838Z,375
2016-08-05T07:54:00.475Z,355
2016-08-05T07:55:01.204Z,355
2016-08-05T07:56:01.917Z,285
2016-08-05T07:57:01.396Z,325
2016-08-05T07:58:01.982Z,305
2016-08-05T07:59:01.439Z,315
2016-08-05T08:00:01.294Z,335
2016-08-05T08:01:01.444Z,350
2016-08-05T08:02:01.524Z,335
2016-08-05T08:03:01.398Z,475
2016-08-05T08:04:01.417Z,485
2016-08-05T08:05:01.432Z,685
2016-08-05T08:06:00.818Z,800
2016-08-05T08:07:00.785Z,520
2016-08-05T08:08:01.762Z,480
2016-08-05T08:09:00.834Z,430
2016-08-05T08:10:01.602Z,395
2016-08-05T08:11:01.581Z,350
2016-08-05T08:12:00.915Z,375
2016-08-05T08:13:01.624Z,435
2016-08-05T08:14:01.638Z,410
2016-08-05T08:15:00.966Z,440
2016-08-05T08:16:01.696Z,470
2016-08-05T08:17:02.436Z,360
2016-08-05T08:18:01.745Z,375
2016-08-05T08:19:01.997Z,375
2016-08-05T08:20:01.807Z,475
2016-08-05T08:21:01.872Z,410
2016-08-05T08:22:00.615Z,430
2016-08-05T08:23:02.643Z,395
2016-08-05T08:24:02.594Z,455
2016-08-05T08:25:01.307Z,430
2016-08-05T08:26:00.535Z,485
2016-08-05T08:27:01.990Z,685
2016-08-05T08:28:02.136Z,615
2016-08-05T08:29:01.366Z,525
2016-08-05T08:30:02.085Z,545
2016-08-05T08:31:02.089Z,400
2016-08-05T08:32:02.138Z,475
2016-08-05T08:33:00.866Z,475
2016-08-05T08:34:01.563Z,490
2016-08-05T08:35:01.608Z,530
2016-08-05T08:36:02.206Z,430
2016-08-05T08:37:00.915Z,385
2016-08-05T08:38:01.549Z,335
2016-08-05T08:39:02.367Z,395
2016-08-05T08:40:01.605Z,490
2016-08-05T08:41:01.644Z,440
2016-08-05T08:42:03.062Z,395
2016-08-05T08:43:00.981Z,335
2016-08-05T08:44:02.413Z,340
2016-08-05T08:45:03.142Z,380
2016-08-05T08:46:02.443Z,480
2016-08-05T08:47:02.475Z,395
2016-08-05T08:48:02.484Z,370
2016-08-05T08:49:03.304Z,345
2016-08-05T08:50:01.868Z,365
2016-08-05T08:51:02.577Z,415
2016-08-05T08:52:01.904Z,325
2016-08-05T08:53:03.327Z,280
2016-08-05T08:54:01.263Z,290
2016-08-05T08:55:02.695Z,335
2016-08-05T08:56:03.533Z,390
2016-08-05T08:57:02.755Z,460
2016-08-05T08:58:02.159Z,445
2016-08-05T08:59:03.506Z,565
2016-08-05T09:00:03.571Z,575
2016-08-05T09:01:01.444Z,620
2016-08-05T09:02:01.587Z,595
2016-08-05T09:03:00.896Z,515
2016-08-05T09:04:03.652Z,495
2016-08-05T09:05:02.236Z,610
2016-08-05T09:06:03.685Z,665
2016-08-05T09:07:03.007Z,670
2016-08-05T09:08:03.025Z,770
2016-08-05T09:09:03.095Z,720
2016-08-05T09:10:02.475Z,720
2016-08-05T09:11:03.156Z,720
2016-08-05T09:12:01.082Z,710
2016-08-05T09:13:03.220Z,690
2016-08-05T09:14:03.307Z,635
2016-08-05T09:15:03.215Z,600
2016-08-05T09:16:02.564Z,590
2016-08-05T09:17:03.297Z,635
2016-08-05T09:18:04.106Z,700
2016-08-05T09:19:02.627Z,750
2016-08-05T09:20:03.406Z,700
2016-08-05T09:21:03.390Z,655
2016-08-05T09:22:02.783Z,650
2016-08-05T09:23:04.148Z,565
2016-08-05T09:24:03.507Z,575
2016-08-05T09:25:03.473Z,610
2016-08-05T09:26:04.215Z,525
2016-08-05T09:27:02.886Z,535
2016-08-05T09:28:04.256Z,585
2016-08-05T09:29:04.345Z,630
2016-08-05T09:30:02.917Z,665
2016-08-05T09:31:03.664Z,660
2016-08-05T09:32:03.869Z,575
2016-08-05T09:33:03.015Z,625
2016-08-05T09:34:04.556Z,655
2016-08-05T09:35:03.745Z,625
2016-08-05T09:36:04.577Z,570
2016-08-05T09:37:03.107Z,615
2016-08-05T09:38:04.605Z,615
2016-08-05T09:39:03.873Z,600
2016-08-05T09:40:03.208Z,635
2016-08-05T09:41:04.643Z,635
2016-08-05T09:42:03.336Z,570
2016-08-05T09:43:02.554Z,540
2016-08-05T09:44:04.747Z,575
2016-08-05T09:45:03.397Z,540
2016-08-05T09:46:02.664Z,615
2016-08-05T09:47:04.072Z,680
2016-08-05T09:48:02.699Z,625
2016-08-05T09:49:04.885Z,620
2016-08-05T09:50:03.543Z,605
2016-08-05T09:51:04.234Z,590
2016-08-05T09:52:03.674Z,595
2016-08-05T09:53:05.047Z,550
2016-08-05T09:54:02.162Z,550
2016-08-05T09:55:04.335Z,550
2016-08-05T09:56:05.048Z,515
2016-08-05T09:57:02.952Z,550
2016-08-05T09:58:05.134Z,570
2016-08-05T09:59:05.176Z,570
2016-08-05T10:00:03.732Z,565
2016-08-05T10:01:05.216Z,520
2016-08-05T10:02:05.228Z,485
2016-08-05T10:03:05.484Z,500
2016-08-05T10:04:04.784Z,535
2016-08-05T10:05:04.275Z,560
2016-08-05T10:06:03.907Z,605
2016-08-05T10:07:04.302Z,570
2016-08-05T10:08:04.102Z,580
2016-08-05T10:09:04.306Z,560
2016-08-05T10:10:05.505Z,565
2016-08-05T10:11:04.055Z,595
2016-08-05T10:12:05.545Z,635
2016-08-05T10:13:04.110Z,650
2016-08-05T10:14:04.854Z,630
2016-08-05T10:15:04.973Z,645
2016-08-05T10:16:04.910Z,595
2016-08-05T10:17:03.565Z,580
2016-08-05T10:18:03.554Z,560
2016-08-05T10:19:04.266Z,510
2016-08-05T10:20:05.144Z,460
2016-08-05T10:21:04.350Z,460
2016-08-05T10:22:03.646Z,490
2016-08-05T10:23:04.499Z,580
2016-08-05T10:24:04.415Z,615
2016-08-05T10:25:04.495Z,530
2016-08-05T10:26:04.482Z,495
2016-08-05T10:27:06.111Z,515
2016-08-05T10:28:04.546Z,530
2016-08-05T10:29:04.618Z,530
2016-08-05T10:30:05.996Z,530
2016-08-05T10:31:05.387Z,545
2016-08-05T10:32:05.355Z,560
2016-08-05T10:33:06.061Z,545
2016-08-05T10:34:05.213Z,530
2016-08-05T10:35:04.221Z,490
2016-08-05T10:36:05.753Z,465
2016-08-05T10:37:06.204Z,465
2016-08-05T10:38:05.804Z,470
2016-08-05T10:39:04.911Z,475
2016-08-05T10:40:04.300Z,470
2016-08-05T10:41:05.595Z,470
2016-08-05T10:42:05.658Z,470
2016-08-05T10:43:05.694Z,475
2016-08-05T10:44:04.274Z,485
2016-08-05T10:45:05.715Z,505
2016-08-05T10:46:05.030Z,515
2016-08-05T10:47:04.516Z,545
2016-08-05T10:48:05.790Z,545
2016-08-05T10:49:05.924Z,475
2016-08-05T10:50:05.854Z,435
2016-08-05T10:51:05.875Z,435
2016-08-05T10:52:05.911Z,450
2016-08-05T10:53:05.349Z,455
2016-08-05T10:54:05.972Z,440
2016-08-05T10:55:06.791Z,450
2016-08-05T10:56:06.721Z,460
2016-08-05T10:57:06.294Z,490
2016-08-05T10:58:06.122Z,510
2016-08-05T10:59:05.402Z,520
2016-08-05T11:00:06.246Z,515
2016-08-05T11:01:06.164Z,495
2016-08-05T11:02:04.763Z,495
2016-08-05T11:03:06.205Z,515
2016-08-05T11:04:06.253Z,550
2016-08-05T11:05:05.577Z,570
2016-08-05T11:06:06.339Z,550
2016-08-05T11:07:06.322Z,520
2016-08-05T11:08:05.644Z,485
2016-08-05T11:09:05.691Z,480
2016-08-05T11:10:05.703Z,535
2016-08-05T11:11:06.568Z,535
2016-08-05T11:12:06.025Z,505
2016-08-05T11:13:05.802Z,475
2016-08-05T11:14:06.520Z,445
2016-08-05T11:15:06.572Z,475
2016-08-05T11:16:05.170Z,505
2016-08-05T11:17:05.900Z,445
2016-08-05T11:18:07.396Z,425
2016-08-05T11:19:05.952Z,420
2016-08-05T11:20:06.808Z,440
2016-08-05T11:21:07.594Z,485
2016-08-05T11:22:06.964Z,500
2016-08-05T11:23:07.790Z,530
2016-08-05T11:24:06.811Z,490
2016-08-05T11:25:05.406Z,440
2016-08-05T11:26:06.881Z,410
2016-08-05T11:27:05.803Z,395
2016-08-05T11:28:06.962Z,395
2016-08-05T11:29:06.930Z,395
2016-08-05T11:30:07.694Z,380
2016-08-05T11:31:06.368Z,380
2016-08-05T11:32:05.643Z,390
2016-08-05T11:33:07.078Z,375
2016-08-05T11:34:07.130Z,360
2016-08-05T11:35:07.122Z,355
2016-08-05T11:36:07.133Z,350
2016-08-05T11:37:07.186Z,340
2016-08-05T11:38:05.799Z,340
2016-08-05T11:39:06.520Z,320
2016-08-05T11:40:07.652Z,315
2016-08-05T11:41:08.262Z,320
2016-08-05T11:42:07.892Z,335
2016-08-05T11:43:06.620Z,345
2016-08-05T11:44:07.672Z,325
2016-08-05T11:45:06.771Z,320
2016-08-05T11:46:06.014Z,305
2016-08-05T11:47:06.773Z,305
2016-08-05T11:48:06.752Z,330
2016-08-05T11:49:07.542Z,355
2016-08-05T11:50:06.980Z,380
2016-08-05T11:51:08.265Z,390
2016-08-05T11:52:08.300Z,395
2016-08-05T11:53:07.613Z,410
2016-08-05T11:54:08.343Z,435
2016-08-05T11:55:07.651Z,435
2016-08-05T11:56:07.730Z,445
2016-08-05T11:58:07.043Z,430
2016-08-05T11:59:07.083Z,420
2016-08-05T12:00:07.894Z,410
2016-08-05T12:01:07.145Z,400
2016-08-05T12:02:08.653Z,370
2016-08-05T12:03:07.199Z,385
2016-08-05T12:04:08.621Z,410
2016-08-05T12:05:08.631Z,465
2016-08-05T12:06:08.680Z,515
2016-08-05T12:07:06.582Z,515
2016-08-05T12:08:08.005Z,485
2016-08-05T12:09:07.439Z,440
2016-08-05T12:10:08.107Z,425
2016-08-05T12:11:08.217Z,375
2016-08-05T12:13:08.455Z,315
2016-08-05T12:14:08.551Z,295
2016-08-05T12:15:08.423Z,260
2016-08-05T12:16:09.107Z,220
2016-08-05T12:17:08.443Z,165
2016-08-05T12:18:09.159Z,130
2016-08-05T12:19:09.180Z,110
2016-08-05T12:20:09.308Z,95
2016-08-05T12:21:09.181Z,85
2016-08-05T12:22:08.572Z,80
2016-08-05T12:23:08.562Z,80
2016-08-05T12:24:09.239Z,85
2016-08-05T12:25:08.531Z,90
2016-08-05T12:26:08.591Z,95
2016-08-05T12:27:09.231Z,105
2016-08-05T12:28:09.282Z,110
2016-08-05T12:29:08.724Z,130
2016-08-05T12:30:09.390Z,155
2016-08-05T12:31:08.811Z,185
2016-08-05T12:32:09.396Z,205
2016-08-05T12:33:09.735Z,210
2016-08-05T12:34:08.772Z,215
2016-08-05T12:35:08.134Z,205
2016-08-05T12:36:08.774Z,190
2016-08-05T12:37:08.933Z,185
2016-08-05T12:38:09.535Z,185
2016-08-05T12:39:08.149Z,180
2016-08-05T12:40:09.648Z,175
2016-08-05T12:41:09.601Z,180
2016-08-05T12:42:07.520Z,190
2016-08-05T12:43:09.653Z,200
2016-08-05T12:44:09.675Z,205
2016-08-05T12:45:08.293Z,220
2016-08-05T12:46:09.732Z,240
2016-08-05T12:47:09.049Z,250
2016-08-05T12:48:09.884Z,265
2016-08-05T12:49:09.117Z,280
2016-08-05T12:50:09.371Z,295
2016-08-05T12:51:09.850Z,310
2016-08-05T12:52:09.182Z,320
2016-08-05T12:53:09.213Z,325
2016-08-05T12:54:09.228Z,330
2016-08-05T12:55:09.970Z,330
2016-08-05T12:56:09.962Z,330
2016-08-05T12:57:09.372Z,325
2016-08-05T12:58:10.012Z,325
2016-08-05T12:59:10.117Z,320
2016-08-05T13:00:09.354Z,325
2016-08-05T13:01:10.181Z,335
2016-08-05T13:02:08.798Z,355
2016-08-05T13:03:09.425Z,385
2016-08-05T13:04:10.346Z,400
2016-08-05T13:05:10.205Z,425
2016-08-05T13:06:10.220Z,440
2016-08-05T13:07:08.830Z,445
2016-08-05T13:08:08.831Z,440
2016-08-05T13:09:09.579Z,435
2016-08-05T13:10:09.601Z,425
2016-08-05T13:11:09.632Z,410
2016-08-05T13:12:09.656Z,395
2016-08-05T13:13:09.664Z,380
2016-08-05T13:14:09.700Z,365
2016-08-05T13:15:10.432Z,345
2016-08-05T13:16:09.764Z,325
2016-08-05T13:17:10.474Z,305
2016-08-05T13:18:09.808Z,295
2016-08-05T13:19:10.611Z,285
2016-08-05T13:20:09.853Z,285
2016-08-05T13:21:10.576Z,290
2016-08-05T13:22:09.924Z,300
2016-08-05T13:23:09.995Z,315
2016-08-05T13:24:09.974Z,330
2016-08-05T13:25:09.242Z,345
2016-08-05T13:26:08.573Z,360
2016-08-05T13:27:10.003Z,375
2016-08-05T13:28:10.974Z,390
2016-08-05T13:29:10.066Z,405
2016-08-05T13:30:09.413Z,410
2016-08-05T13:31:10.980Z,415
2016-08-05T13:32:10.194Z,420
2016-08-05T13:33:10.997Z,425
2016-08-05T13:34:10.207Z,425
2016-08-05T13:35:10.223Z,405
2016-08-05T13:36:10.329Z,390
2016-08-05T13:37:09.557Z,355
2016-08-05T13:38:11.024Z,335
2016-08-05T13:39:11.061Z,330
2016-08-05T13:40:11.071Z,310
2016-08-05T13:41:08.999Z,295
2016-08-05T13:42:11.116Z,295
2016-08-05T13:43:10.410Z,305
2016-08-05T13:44:11.149Z,325
2016-08-05T13:45:11.227Z,345
2016-08-05T13:46:11.261Z,360
2016-08-05T13:47:11.232Z,385
2016-08-05T13:48:10.616Z,400
2016-08-05T13:49:11.412Z,425
2016-08-05T13:50:11.323Z,450
2016-08-05T13:51:10.646Z,460
2016-08-05T13:52:10.740Z,460
2016-08-05T13:53:10.663Z,460
2016-08-05T13:54:10.733Z,455
2016-08-05T13:55:10.732Z,450
2016-08-05T13:56:11.555Z,435
2016-08-05T13:57:11.518Z,425
2016-08-05T13:58:10.805Z,425
2016-08-05T13:59:11.120Z,435
2016-08-05T14:00:10.862Z,450
2016-08-05T14:01:10.877Z,465
2016-08-05T14:02:10.907Z,480
2016-08-05T14:03:10.443Z,485
2016-08-05T14:04:11.674Z,485
2016-08-05T14:05:11.064Z,490
2016-08-05T14:06:10.321Z,480
2016-08-05T14:07:11.852Z,470
2016-08-05T14:08:11.182Z,470
2016-08-05T14:09:11.812Z,480
2016-08-05T14:10:11.474Z,495
2016-08-05T14:11:11.841Z,515
2016-08-05T14:12:11.290Z,530
2016-08-05T14:13:11.932Z,525
2016-08-05T14:14:11.254Z,500